aviador You're here:

KOAK Decoded Metar

OAKLAND in CA, USA
Report Time2017-07-21 03:53:00
UTC Time2017-07-21 04:45:58
Flight Rules vfr VFR
Wind260° at 14 kt
W.Decomp.*RWY 27: 12.6 kt HW 6.1 kt LCW
RWY 29: 9.7 kt HW 10.1 kt LCW
RWY 33: 1.0 kt HW 14 kt LCW
W.Rank260° ranks 5
Current wind is above 260° avg. (8.7)
Visibility9999 m
Phenomena:N/A
Clouds:Few 010 Hf
Expected CloudBase > 1,600 ft AGL from Temp-Dew spread
CeilingNone
Temp16°C (ISA +1)
Dew Point12°C (77% RH)
AAT11.6°C
QNH1016 hPa
Density Alt308 ft
Elevation85 ft
Report Wrong Elevation
Raw Report
KOAK 210353Z 26014KT 10SM FEW010 16/12 A3001 RMK AO2 SLP163
T01610117=

Extra information for KOAK:More info

Metar Taf Metar & Taf Last 4 Metars F.Rules Stats Wind Profile Meteogram Temp Stats Airport Information Weather charts Add Link Nearby VenuesMetar ALERT Operation Metar Decoded Social comments

AIRNAV info for KOAK